Time;durP1;ratioP1;P1;durP2;ratioP2;P2;SDS_P1;SDS_P2;PMS_P1;PMS_P2;Temp;Humidity;BMP_temperature;BMP_pressure;BME280_temperature;BME280_humidity;BME280_pressure;Samples;Min_cycle;Max_cycle;Signal;HPM_P1;HPM_P2
2023/02/25 00:01:16;;;;;;;27.52;5.13;;;3.60;99.90;;;;;;5095885;28;20038;-64
2023/02/25 00:03:42;;;;;;;23.17;4.53;;;3.60;99.90;;;;;;5096996;28;20028;-64
2023/02/25 00:06:12;;;;;;;25.73;3.78;;;3.70;99.90;;;;;;5097193;28;20028;-64
2023/02/25 00:08:39;;;;;;;22.48;3.45;;;3.60;99.90;;;;;;5095887;28;20549;-64
2023/02/25 00:11:06;;;;;;;30.40;3.95;;;3.70;99.90;;;;;;5097068;28;20099;-64
2023/02/25 00:13:33;;;;;;;26.92;5.00;;;3.70;99.90;;;;;;5095706;28;20381;-64
2023/02/25 00:16:02;;;;;;;23.85;4.15;;;3.60;99.90;;;;;;5095536;28;20031;-64
2023/02/25 00:18:29;;;;;;;23.27;4.35;;;3.70;99.90;;;;;;5095755;28;20469;-64
2023/02/25 00:20:55;;;;;;;17.63;4.40;;;3.70;99.90;;;;;;5096872;28;20064;-64
2023/02/25 00:23:21;;;;;;;24.15;4.80;;;3.70;99.90;;;;;;5096641;28;20024;-64
2023/02/25 00:25:46;;;;;;;18.25;5.03;;;3.70;99.90;;;;;;5096437;28;20036;-63
2023/02/25 00:28:12;;;;;;;25.58;4.40;;;3.70;99.90;;;;;;5096320;28;20024;-64
2023/02/25 00:30:39;;;;;;;22.73;4.25;;;3.70;99.90;;;;;;5095471;28;20028;-64
2023/02/25 00:33:05;;;;;;;29.85;4.63;;;3.70;99.90;;;;;;5096664;28;20024;-64
2023/02/25 00:35:31;;;;;;;24.35;4.38;;;3.70;99.90;;;;;;5096406;28;20024;-64
2023/02/25 00:37:57;;;;;;;30.95;4.40;;;3.70;99.90;;;;;;5096467;28;20028;-64
2023/02/25 00:40:23;;;;;;;20.23;4.22;;;3.70;99.90;;;;;;5096290;28;20085;-63
2023/02/25 00:42:48;;;;;;;23.10;4.85;;;3.70;99.90;;;;;;5095047;28;20028;-64
2023/02/25 00:45:14;;;;;;;16.83;4.20;;;3.70;99.90;;;;;;5096271;28;20024;-63
2023/02/25 00:47:40;;;;;;;32.40;4.50;;;3.70;99.90;;;;;;5096445;28;20031;-64
2023/02/25 00:50:08;;;;;;;21.83;3.70;;;3.70;99.90;;;;;;5096126;28;20106;-64
2023/02/25 00:52:36;;;;;;;19.90;4.15;;;3.70;99.90;;;;;;5096007;28;20020;-64
2023/02/25 00:55:02;;;;;;;21.50;4.07;;;3.70;99.90;;;;;;5095930;28;20440;-64
2023/02/25 00:57:28;;;;;;;27.83;4.45;;;3.70;99.90;;;;;;5095903;28;20020;-64
2023/02/25 00:59:53;;;;;;;22.85;3.95;;;3.70;99.90;;;;;;5096096;28;20082;-64
2023/02/25 01:02:19;;;;;;;25.20;4.80;;;3.70;99.90;;;;;;5095541;28;20217;-63
2023/02/25 01:04:44;;;;;;;23.33;4.35;;;3.70;99.90;;;;;;5095895;28;20363;-64
2023/02/25 01:07:10;;;;;;;30.60;4.68;;;3.70;99.90;;;;;;5095999;28;20027;-64
2023/02/25 01:09:36;;;;;;;21.00;3.92;;;3.70;99.90;;;;;;5095773;28;20113;-64
2023/02/25 01:12:01;;;;;;;23.67;4.00;;;3.70;99.90;;;;;;5095742;28;20402;-64
2023/02/25 01:14:27;;;;;;;18.27;3.63;;;3.70;99.90;;;;;;5095816;28;20023;-64
2023/02/25 01:16:56;;;;;;;18.20;3.80;;;3.70;99.90;;;;;;5095776;28;20032;-64
2023/02/25 01:19:24;;;;;;;26.63;4.00;;;3.70;99.90;;;;;;5095584;28;20385;-64
2023/02/25 01:21:52;;;;;;;19.20;3.60;;;3.70;99.90;;;;;;5094325;28;20060;-64
2023/02/25 01:24:23;;;;;;;24.08;3.80;;;3.70;99.90;;;;;;5094514;28;20035;-64
2023/02/25 01:26:51;;;;;;;19.48;3.45;;;3.70;99.90;;;;;;5094534;28;20032;-64
2023/02/25 01:29:35;;;;;;;18.17;3.70;;;3.70;99.90;;;;;;5093979;28;20502;-64
2023/02/25 01:32:02;;;;;;;18.02;3.60;;;3.70;99.90;;;;;;5095458;28;20017;-64
2023/02/25 01:34:28;;;;;;;18.25;4.65;;;3.70;99.90;;;;;;5093988;28;20016;-64
2023/02/25 01:36:55;;;;;;;22.00;4.10;;;3.70;99.90;;;;;;5093980;28;20031;-64
2023/02/25 01:39:22;;;;;;;16.95;3.10;;;3.70;99.90;;;;;;5094956;28;20466;-64
2023/02/25 01:41:49;;;;;;;31.90;4.05;;;3.70;99.90;;;;;;5095110;28;20048;-64
2023/02/25 01:44:19;;;;;;;26.25;5.28;;;3.70;99.90;;;;;;5093955;28;20481;-64
2023/02/25 01:46:48;;;;;;;19.58;3.97;;;3.70;99.90;;;;;;5095254;28;20478;-64
2023/02/25 01:51:56;;;;;;;25.90;4.43;;;3.70;99.90;;;;;;5111054;27;20381;-63
2023/02/25 01:54:22;;;;;;;18.67;3.35;;;3.70;99.90;;;;;;5111110;28;20081;-63
2023/02/25 01:56:51;;;;;;;25.42;4.05;;;3.60;99.90;;;;;;5111072;28;20028;-63
2023/02/25 01:59:19;;;;;;;19.17;3.35;;;3.70;99.90;;;;;;5109911;28;20526;-63
2023/02/25 02:01:44;;;;;;;19.20;3.30;;;3.60;99.90;;;;;;5109970;28;20028;-63
2023/02/25 02:04:13;;;;;;;29.38;4.00;;;3.60;99.90;;;;;;5110921;28;20032;-64
2023/02/25 02:06:41;;;;;;;19.13;3.53;;;3.60;99.90;;;;;;5109721;28;20024;-63
2023/02/25 02:09:12;;;;;;;26.35;3.50;;;3.50;99.90;;;;;;5109683;28;20024;-63
2023/02/25 02:11:37;;;;;;;26.90;4.10;;;3.50;99.90;;;;;;5109384;28;20062;-63
2023/02/25 02:14:05;;;;;;;27.38;3.65;;;3.50;99.90;;;;;;5110809;28;20053;-64
2023/02/25 02:16:58;;;;;;;28.13;3.75;;;3.50;99.90;;;;;;5110799;28;20020;-64
2023/02/25 02:19:51;;;;;;;24.73;4.10;;;3.50;99.90;;;;;;5110543;28;20389;-64
2023/02/25 02:25:54;;;;;;;23.33;3.80;;;3.50;99.90;;;;;;5111102;27;20404;-63
2023/02/25 02:28:49;;;;;;;20.08;4.38;;;3.50;99.90;;;;;;5111064;28;20023;-64
2023/02/25 02:31:31;;;;;;;26.52;4.97;;;3.50;99.90;;;;;;5111026;28;20055;-63
2023/02/25 02:34:26;;;;;;;29.63;4.25;;;3.50;99.90;;;;;;5110905;28;20027;-63
2023/02/25 02:37:31;;;;;;;25.75;4.20;;;3.50;99.90;;;;;;5110778;28;20024;-64
2023/02/25 02:40:37;;;;;;;28.08;3.67;;;3.50;99.90;;;;;;5110740;28;20073;-63
2023/02/25 02:43:16;;;;;;;24.73;4.28;;;3.50;99.90;;;;;;5110848;28;20020;-64
2023/02/25 02:45:56;;;;;;;34.20;4.85;;;3.50;99.90;;;;;;5109446;28;20039;-63
2023/02/25 02:48:33;;;;;;;23.15;3.90;;;3.50;99.90;;;;;;5109772;28;20473;-63
2023/02/25 02:51:04;;;;;;;25.15;3.70;;;3.60;99.90;;;;;;5110798;28;20408;-63
2023/02/25 02:53:51;;;;;;;24.83;3.78;;;3.60;99.90;;;;;;5109582;28;20028;-64
2023/02/25 02:56:20;;;;;;;20.50;3.75;;;3.60;99.90;;;;;;5110469;28;20034;-63
2023/02/25 02:58:53;;;;;;;22.00;3.63;;;3.60;99.90;;;;;;5110567;28;20485;-63
2023/02/25 03:01:26;;;;;;;28.02;3.90;;;3.60;99.90;;;;;;5110435;28;20077;-63
2023/02/25 03:04:02;;;;;;;32.13;4.63;;;3.60;99.90;;;;;;5109100;28;20028;-63
2023/02/25 03:06:33;;;;;;;26.33;4.15;;;3.60;99.90;;;;;;5110314;28;20020;-63
2023/02/25 03:09:09;;;;;;;31.70;5.78;;;3.50;99.90;;;;;;5110475;28;20508;-63
2023/02/25 03:11:35;;;;;;;23.92;4.68;;;3.50;99.90;;;;;;5110364;28;20411;-63
2023/02/25 03:14:00;;;;;;;23.33;3.65;;;3.50;99.90;;;;;;5110146;28;20145;-63
2023/02/25 03:16:49;;;;;;;23.35;4.10;;;3.50;99.90;;;;;;5109214;28;20031;-64
2023/02/25 03:19:22;;;;;;;27.58;4.28;;;3.50;99.90;;;;;;5110117;28;20478;-64
2023/02/25 03:21:54;;;;;;;21.23;4.70;;;3.50;99.90;;;;;;5110071;28;20114;-63
2023/02/25 03:24:27;;;;;;;28.73;4.05;;;3.50;99.90;;;;;;5108622;28;20051;-63
2023/02/25 03:26:53;;;;;;;25.42;3.63;;;3.50;99.90;;;;;;5110011;28;20051;-63
2023/02/25 03:29:21;;;;;;;26.80;4.30;;;3.50;99.90;;;;;;5110135;28;20077;-63
2023/02/25 03:32:08;;;;;;;31.92;5.43;;;3.50;99.90;;;;;;5110082;28;20028;-63
2023/02/25 03:34:39;;;;;;;32.88;4.85;;;3.50;99.90;;;;;;5108063;28;20393;-63
2023/02/25 03:37:13;;;;;;;22.95;4.32;;;3.40;99.90;;;;;;5096318;28;20028;-64
2023/02/25 03:39:42;;;;;;;33.58;4.60;;;3.50;99.90;;;;;;5096395;28;20036;-63
2023/02/25 03:42:12;;;;;;;28.45;3.65;;;3.40;99.90;;;;;;5094980;28;20020;-63
2023/02/25 03:44:44;;;;;;;22.25;4.22;;;3.50;99.90;;;;;;5095079;28;20386;-65
2023/02/25 03:47:12;;;;;;;26.23;4.18;;;3.50;99.90;;;;;;5095163;28;20032;-64
2023/02/25 03:50:01;;;;;;;23.52;4.03;;;3.50;99.90;;;;;;5095964;28;20426;-63
2023/02/25 03:52:28;;;;;;;35.05;4.78;;;3.50;99.90;;;;;;5094599;28;20035;-63
2023/02/25 03:54:56;;;;;;;24.45;3.67;;;3.50;99.90;;;;;;5095876;28;20028;-64
2023/02/25 03:57:23;;;;;;;29.45;4.88;;;3.60;99.90;;;;;;5094553;28;20020;-63
2023/02/25 03:59:55;;;;;;;27.48;4.97;;;3.50;99.90;;;;;;5094776;28;20031;-63
2023/02/25 04:02:23;;;;;;;25.40;4.18;;;3.50;99.90;;;;;;5095914;28;20020;-63
2023/02/25 04:04:49;;;;;;;26.08;4.25;;;3.60;99.90;;;;;;5095452;28;20045;-63
2023/02/25 04:07:15;;;;;;;22.33;4.05;;;3.50;99.90;;;;;;5095540;28;20020;-64
2023/02/25 04:09:40;;;;;;;27.33;4.28;;;3.50;99.90;;;;;;5095816;28;20016;-63
2023/02/25 04:12:07;;;;;;;26.23;4.05;;;3.60;99.90;;;;;;5095693;28;20016;-63
2023/02/25 04:14:32;;;;;;;29.67;4.00;;;3.60;99.90;;;;;;5094168;28;20020;-63
2023/02/25 04:16:58;;;;;;;40.83;4.25;;;3.60;99.90;;;;;;5095405;28;20047;-63
2023/02/25 04:19:23;;;;;;;30.48;4.30;;;3.60;99.90;;;;;;5095205;28;20111;-63
2023/02/25 04:21:49;;;;;;;23.95;3.92;;;3.60;99.90;;;;;;5094213;28;20426;-63
2023/02/25 04:24:14;;;;;;;25.90;5.30;;;3.60;99.90;;;;;;5095060;28;20117;-63
2023/02/25 04:26:40;;;;;;;26.67;4.65;;;3.60;99.90;;;;;;5095297;28;20066;-63
2023/02/25 04:29:05;;;;;;;28.88;4.30;;;3.60;99.90;;;;;;5095212;28;20059;-63
2023/02/25 04:31:31;;;;;;;21.73;4.65;;;3.60;99.90;;;;;;5095141;28;20048;-63
2023/02/25 04:33:57;;;;;;;32.92;4.40;;;3.60;99.90;;;;;;5095039;28;20024;-63
2023/02/25 04:36:32;;;;;;;34.90;4.45;;;3.60;99.90;;;;;;5095076;28;20038;-63
2023/02/25 04:39:00;;;;;;;28.40;4.60;;;3.60;99.90;;;;;;5093835;28;20111;-63
2023/02/25 04:41:29;;;;;;;27.02;4.68;;;3.60;99.90;;;;;;5094120;28;20473;-64
2023/02/25 04:43:55;;;;;;;28.83;4.30;;;3.60;99.90;;;;;;5093682;28;20031;-64
2023/02/25 04:46:20;;;;;;;26.13;3.78;;;3.70;99.90;;;;;;5094308;28;20031;-63
2023/02/25 04:48:46;;;;;;;34.75;5.20;;;3.60;99.90;;;;;;5094571;28;20386;-63
2023/02/25 04:51:11;;;;;;;22.15;4.13;;;3.60;99.90;;;;;;5094842;28;20020;-63
2023/02/25 04:53:37;;;;;;;31.40;4.47;;;3.60;99.90;;;;;;5094713;28;20059;-63
2023/02/25 04:56:05;;;;;;;30.33;4.80;;;3.60;99.90;;;;;;5094646;28;20035;-63
2023/02/25 04:58:32;;;;;;;25.05;4.57;;;3.60;99.90;;;;;;5093690;28;20482;-63
2023/02/25 05:00:59;;;;;;;31.73;5.53;;;3.60;99.90;;;;;;5094831;28;20031;-63
2023/02/25 05:03:25;;;;;;;35.78;5.50;;;3.50;99.90;;;;;;5094580;28;20031;-63
2023/02/25 05:05:51;;;;;;;32.22;5.43;;;3.50;99.90;;;;;;5094473;28;20530;-63
2023/02/25 05:08:17;;;;;;;35.80;5.13;;;3.50;99.90;;;;;;5094647;28;20027;-63
2023/02/25 05:10:42;;;;;;;27.63;5.25;;;3.50;99.90;;;;;;5094586;28;20363;-63
2023/02/25 05:13:08;;;;;;;28.63;4.40;;;3.50;99.90;;;;;;5094573;28;20385;-63
2023/02/25 05:15:33;;;;;;;26.65;5.63;;;3.50;99.90;;;;;;5094243;28;20028;-63
2023/02/25 05:17:59;;;;;;;29.80;4.78;;;3.50;99.90;;;;;;5094218;28;20055;-63
2023/02/25 05:20:25;;;;;;;32.20;5.43;;;3.50;99.90;;;;;;5094448;28;20103;-63
2023/02/25 05:22:50;;;;;;;41.22;5.68;;;3.50;99.90;;;;;;5092793;28;20028;-63
2023/02/25 05:25:16;;;;;;;25.58;5.32;;;3.50;99.90;;;;;;5094051;28;20028;-63
2023/02/25 05:27:42;;;;;;;32.97;5.88;;;3.50;99.90;;;;;;5094146;28;20390;-63
2023/02/25 05:30:08;;;;;;;36.08;4.78;;;3.50;99.90;;;;;;5094199;28;20064;-63
2023/02/25 05:32:34;;;;;;;22.52;4.32;;;3.50;99.90;;;;;;5094021;28;20031;-63
2023/02/25 05:34:59;;;;;;;25.02;4.22;;;3.50;99.90;;;;;;5093942;28;20024;-63
2023/02/25 05:37:25;;;;;;;23.90;3.97;;;3.50;99.90;;;;;;5093933;28;20511;-63
2023/02/25 05:39:50;;;;;;;34.40;5.10;;;3.50;99.90;;;;;;5093727;28;20031;-63
2023/02/25 05:42:16;;;;;;;28.17;4.72;;;3.50;99.90;;;;;;5092715;28;20036;-63
2023/02/25 05:44:41;;;;;;;33.45;5.07;;;3.50;99.90;;;;;;5093662;28;20028;-63
2023/02/25 05:47:07;;;;;;;40.72;5.57;;;3.50;99.90;;;;;;5093861;28;20111;-63
2023/02/25 05:49:33;;;;;;;34.17;4.35;;;3.50;99.90;;;;;;5093946;28;20019;-63
2023/02/25 05:51:58;;;;;;;31.75;4.63;;;3.50;99.90;;;;;;5093641;28;20031;-63
2023/02/25 05:54:24;;;;;;;49.30;4.82;;;3.50;99.90;;;;;;5093640;28;20103;-63
2023/02/25 05:56:51;;;;;;;34.63;5.25;;;3.50;99.90;;;;;;5092435;28;20032;-63
2023/02/25 05:59:17;;;;;;;26.25;3.58;;;3.50;99.90;;;;;;5093595;28;20036;-63
2023/02/25 06:01:43;;;;;;;35.05;4.07;;;3.50;99.90;;;;;;5093526;28;20020;-63
2023/02/25 06:04:08;;;;;;;30.17;4.97;;;3.40;99.90;;;;;;5093546;28;20084;-63
2023/02/25 06:06:34;;;;;;;30.05;4.10;;;3.40;99.90;;;;;;5093418;28;20135;-63
2023/02/25 06:08:59;;;;;;;31.58;4.97;;;3.50;99.90;;;;;;5093341;28;20501;-63
2023/02/25 06:11:27;;;;;;;31.58;4.13;;;3.50;99.90;;;;;;5093453;28;20107;-63
2023/02/25 06:13:54;;;;;;;26.23;4.93;;;3.50;99.90;;;;;;5092233;28;20120;-63
2023/02/25 06:16:20;;;;;;;28.05;4.35;;;3.50;99.90;;;;;;5093395;28;20062;-63
2023/02/25 06:18:47;;;;;;;31.35;4.45;;;3.50;99.90;;;;;;5092240;28;20111;-63
2023/02/25 06:21:14;;;;;;;32.40;4.47;;;3.50;99.90;;;;;;5093362;28;20032;-63
2023/02/25 06:23:42;;;;;;;36.72;6.88;;;3.50;99.90;;;;;;5093130;28;20048;-63
2023/02/25 06:26:10;;;;;;;43.55;4.93;;;3.50;99.90;;;;;;5091996;28;20031;-63
2023/02/25 06:28:35;;;;;;;34.38;5.35;;;3.50;99.90;;;;;;5093210;28;20051;-63
2023/02/25 06:31:01;;;;;;;33.72;4.82;;;3.50;99.90;;;;;;5093141;28;20074;-63
2023/02/25 06:33:30;;;;;;;37.05;4.72;;;3.50;99.90;;;;;;5093173;28;20036;-63
2023/02/25 06:35:56;;;;;;;32.20;4.68;;;3.60;99.90;;;;;;5092248;28;20031;-63
2023/02/25 06:38:22;;;;;;;32.60;4.78;;;3.50;99.90;;;;;;5092210;28;20094;-64
2023/02/25 06:40:48;;;;;;;39.42;4.90;;;3.50;99.90;;;;;;5091933;28;20058;-63
2023/02/25 06:43:15;;;;;;;31.80;5.03;;;3.60;99.90;;;;;;5092038;28;20039;-63
2023/02/25 06:45:40;;;;;;;39.78;5.00;;;3.50;99.90;;;;;;5092076;28;20020;-64
2023/02/25 06:48:06;;;;;;;29.42;4.07;;;3.60;99.90;;;;;;5093083;28;20032;-63
2023/02/25 06:50:32;;;;;;;29.08;4.63;;;3.60;99.90;;;;;;5093133;28;20032;-63
2023/02/25 06:52:58;;;;;;;30.15;4.88;;;3.60;99.90;;;;;;5092944;28;20024;-63
2023/02/25 06:55:24;;;;;;;26.67;4.53;;;3.60;99.90;;;;;;5093194;28;20470;-63
2023/02/25 06:57:50;;;;;;;31.35;4.60;;;3.60;99.90;;;;;;5093203;28;20024;-64
2023/02/25 07:00:15;;;;;;;31.83;4.80;;;3.60;99.90;;;;;;5093025;28;20363;-63
2023/02/25 07:02:41;;;;;;;28.85;5.10;;;3.60;99.90;;;;;;5093006;28;20043;-64
2023/02/25 07:05:07;;;;;;;32.90;4.68;;;3.60;99.90;;;;;;5092941;28;20043;-64
2023/02/25 07:07:32;;;;;;;27.92;4.55;;;3.60;99.90;;;;;;5092805;28;20024;-63
2023/02/25 07:09:58;;;;;;;36.38;4.20;;;3.60;99.90;;;;;;5093186;28;20047;-64
2023/02/25 07:12:24;;;;;;;30.17;6.00;;;3.60;99.90;;;;;;5096684;28;20034;-63
2023/02/25 07:14:49;;;;;;;29.25;4.50;;;3.70;99.90;;;;;;5096647;28;20081;-63
2023/02/25 07:17:15;;;;;;;28.05;4.70;;;3.70;99.90;;;;;;5096671;28;20039;-64
2023/02/25 07:19:40;;;;;;;25.10;4.80;;;3.60;99.90;;;;;;5096669;28;20024;-63
2023/02/25 07:22:08;;;;;;;28.17;4.80;;;3.50;99.90;;;;;;5096463;28;20389;-63
2023/02/25 07:24:34;;;;;;;27.15;4.18;;;3.50;99.90;;;;;;5096179;28;20044;-64
2023/02/25 07:27:00;;;;;;;20.42;3.50;;;3.40;99.90;;;;;;5095253;28;20107;-64
2023/02/25 07:29:26;;;;;;;17.38;3.40;;;3.40;99.90;;;;;;5096398;28;20051;-64
2023/02/25 07:31:51;;;;;;;14.25;2.33;;;3.30;99.90;;;;;;5096352;28;20031;-63
2023/02/25 07:34:17;;;;;;;13.25;2.50;;;3.30;99.90;;;;;;5096293;28;20382;-64
2023/02/25 07:36:42;;;;;;;10.73;2.03;;;3.20;99.90;;;;;;5096418;28;20035;-64
2023/02/25 07:39:10;;;;;;;16.92;2.35;;;3.30;99.90;;;;;;5096303;28;20031;-63
2023/02/25 07:41:36;;;;;;;11.70;2.17;;;3.30;99.90;;;;;;5096104;28;20489;-64
2023/02/25 07:44:02;;;;;;;5.80;1.67;;;3.30;99.90;;;;;;5094871;28;20039;-64
2023/02/25 07:46:29;;;;;;;11.93;2.72;;;3.30;99.90;;;;;;5095997;28;20020;-64
2023/02/25 07:48:54;;;;;;;7.30;1.85;;;3.30;99.90;;;;;;5094816;28;20025;-63
2023/02/25 07:51:22;;;;;;;9.50;2.28;;;3.30;99.90;;;;;;5095971;28;20503;-64
2023/02/25 07:53:49;;;;;;;8.77;1.77;;;3.40;99.90;;;;;;5095847;28;20115;-63
2023/02/25 07:56:16;;;;;;;9.73;1.65;;;3.40;99.90;;;;;;5095930;28;20024;-63
2023/02/25 07:58:42;;;;;;;7.85;1.45;;;3.50;99.90;;;;;;5096016;28;20020;-64
2023/02/25 08:01:17;;;;;;;8.65;2.10;;;3.60;99.90;;;;;;5095984;28;20031;-65
2023/02/25 08:03:43;;;;;;;10.10;4.10;;;3.70;99.90;;;;;;5095953;28;20034;-64
2023/02/25 08:06:08;;;;;;;8.30;2.13;;;3.80;99.90;;;;;;5095796;28;20416;-63
2023/02/25 08:08:35;;;;;;;8.52;1.95;;;3.80;99.90;;;;;;5095728;28;20035;-63
2023/02/25 08:11:07;;;;;;;6.38;1.40;;;3.80;99.90;;;;;;5094241;28;20028;-63
2023/02/25 08:13:34;;;;;;;7.90;1.88;;;3.90;99.90;;;;;;5094343;28;20032;-63
2023/02/25 08:16:02;;;;;;;5.28;1.40;;;4.10;99.90;;;;;;5094281;28;20116;-64
2023/02/25 08:18:28;;;;;;;8.85;1.50;;;4.30;99.90;;;;;;5094294;28;20036;-64
2023/02/25 08:20:54;;;;;;;5.90;1.40;;;4.20;99.90;;;;;;5095304;28;20028;-63
2023/02/25 08:23:20;;;;;;;5.88;1.30;;;4.30;99.90;;;;;;5095244;28;20047;-63
2023/02/25 08:25:45;;;;;;;6.38;1.60;;;4.30;99.90;;;;;;5095342;28;20382;-63
2023/02/25 08:28:11;;;;;;;5.32;1.60;;;4.30;99.90;;;;;;5095344;28;20482;-64
2023/02/25 08:30:37;;;;;;;5.35;1.60;;;4.30;99.90;;;;;;5095167;28;20426;-63
2023/02/25 08:33:02;;;;;;;8.98;1.98;;;4.30;99.90;;;;;;5095307;28;20024;-63
2023/02/25 08:35:28;;;;;;;4.13;1.40;;;4.30;99.90;;;;;;5095099;28;20047;-64
2023/02/25 08:37:53;;;;;;;12.48;1.90;;;4.40;99.90;;;;;;5095075;28;20500;-64
2023/02/25 08:40:20;;;;;;;7.25;1.67;;;4.40;99.90;;;;;;5094958;28;20027;-64
2023/02/25 08:42:45;;;;;;;9.90;1.85;;;4.50;99.90;;;;;;5093797;28;20028;-64
2023/02/25 08:45:11;;;;;;;5.53;1.70;;;4.60;99.90;;;;;;5094919;28;20101;-64
2023/02/25 08:47:36;;;;;;;12.20;1.80;;;4.60;99.90;;;;;;5094675;28;20056;-63
2023/02/25 08:50:04;;;;;;;11.77;2.13;;;4.60;99.90;;;;;;5095019;28;20024;-63
2023/02/25 08:52:32;;;;;;;9.43;2.30;;;4.70;99.90;;;;;;5094739;28;20024;-63
2023/02/25 08:55:00;;;;;;;12.10;2.33;;;4.90;99.90;;;;;;5094671;28;20111;-64
2023/02/25 08:57:26;;;;;;;9.07;1.80;;;5.10;99.90;;;;;;5093845;28;20084;-64
2023/02/25 08:59:52;;;;;;;6.95;2.53;;;5.20;99.90;;;;;;5094667;28;20027;-63
2023/02/25 09:02:17;;;;;;;9.85;2.38;;;5.30;99.90;;;;;;5094806;28;20028;-63
2023/02/25 09:04:43;;;;;;;8.90;2.40;;;5.30;99.90;;;;;;5094531;28;20055;-64
2023/02/25 09:07:08;;;;;;;17.75;3.25;;;5.30;99.90;;;;;;5094556;28;20043;-63
2023/02/25 09:09:34;;;;;;;10.90;2.42;;;5.40;99.90;;;;;;5094538;28;20028;-63
2023/02/25 09:12:00;;;;;;;11.55;2.65;;;5.30;99.90;;;;;;5094398;28;20031;-63
2023/02/25 09:14:26;;;;;;;13.55;2.63;;;5.30;99.90;;;;;;5094391;28;20444;-63
2023/02/25 09:16:51;;;;;;;8.85;2.10;;;6.00;99.90;;;;;;5094344;28;20434;-63
2023/02/25 09:19:18;;;;;;;16.98;2.33;;;6.90;99.90;;;;;;5094321;28;20042;-63
2023/02/25 09:21:46;;;;;;;9.00;2.70;;;7.10;99.90;;;;;;5093271;28;20448;-63
2023/02/25 09:24:12;;;;;;;8.80;2.38;;;7.60;99.90;;;;;;5094018;28;20102;-64
2023/02/25 09:26:38;;;;;;;12.30;2.10;;;8.30;99.90;;;;;;5094343;28;20052;-63
2023/02/25 09:29:05;;;;;;;13.40;2.72;;;8.70;99.90;;;;;;5094041;28;20107;-63
2023/02/25 09:31:32;;;;;;;12.05;2.88;;;8.20;99.90;;;;;;5092856;28;20020;-63
2023/02/25 09:33:57;;;;;;;7.82;2.60;;;7.70;99.90;;;;;;5093396;28;20066;-64
2023/02/25 09:36:23;;;;;;;10.68;2.13;;;7.70;99.90;;;;;;5093974;28;20020;-64
2023/02/25 09:38:49;;;;;;;16.63;2.28;;;8.30;99.90;;;;;;5093721;28;20073;-64
2023/02/25 09:41:41;;;;;;;8.10;2.25;;;8.60;99.90;;;;;;5094241;28;20493;-64
2023/02/25 09:44:15;;;;;;;11.55;2.40;;;8.30;99.90;;;;;;5093641;28;20101;-64
2023/02/25 09:46:49;;;;;;;16.15;2.65;;;7.80;99.90;;;;;;5092603;28;20020;-64
2023/02/25 09:49:52;;;;;;;11.15;2.25;;;7.40;99.90;;;;;;5093717;28;20527;-64
2023/02/25 09:52:34;;;;;;;13.57;2.50;;;6.90;99.90;;;;;;5093684;28;20020;-63
2023/02/25 09:55:18;;;;;;;10.50;2.25;;;6.50;99.90;;;;;;5092434;28;20032;-63
2023/02/25 09:57:58;;;;;;;12.88;2.38;;;6.60;99.90;;;;;;5092719;28;20522;-63
2023/02/25 10:00:23;;;;;;;10.73;2.22;;;6.70;99.90;;;;;;5093753;28;20063;-63
2023/02/25 10:02:56;;;;;;;13.85;2.28;;;6.40;99.90;;;;;;5093745;28;20092;-64
2023/02/25 10:05:43;;;;;;;14.75;2.75;;;6.30;99.90;;;;;;5093538;28;20497;-63
2023/02/25 10:08:35;;;;;;;9.98;2.15;;;6.10;99.90;;;;;;5092509;28;20362;-63
2023/02/25 10:11:15;;;;;;;16.10;2.60;;;6.00;99.90;;;;;;5093323;28;20067;-63
2023/02/25 10:13:55;;;;;;;6.80;1.63;;;5.80;99.90;;;;;;5093518;28;20024;-63
2023/02/25 10:16:38;;;;;;;10.57;2.53;;;5.60;99.90;;;;;;5093332;28;20020;-64
2023/02/25 10:19:33;;;;;;;8.48;1.70;;;5.30;99.90;;;;;;5093577;28;20036;-65
2023/02/25 10:22:30;;;;;;;8.32;1.88;;;5.00;99.90;;;;;;5092232;28;20477;-65
2023/02/25 10:25:00;;;;;;;10.18;2.00;;;4.70;99.90;;;;;;5092889;28;20044;-64
2023/02/25 10:27:30;;;;;;;7.15;1.58;;;4.70;99.90;;;;;;5093250;28;20028;-64
2023/02/25 10:30:02;;;;;;;10.73;2.45;;;4.60;99.90;;;;;;5093293;28;20051;-64
2023/02/25 10:32:33;;;;;;;8.07;2.15;;;4.50;99.90;;;;;;5093245;28;20027;-64
2023/02/25 10:35:00;;;;;;;10.23;2.40;;;4.30;99.90;;;;;;5093135;28;20464;-65
2023/02/25 10:37:36;;;;;;;12.38;2.45;;;4.30;99.90;;;;;;5092050;28;20028;-64
2023/02/25 10:40:09;;;;;;;9.82;2.83;;;4.50;99.90;;;;;;5093121;28;20024;-65
2023/02/25 10:42:34;;;;;;;13.18;2.58;;;5.40;99.90;;;;;;5093420;28;20032;-65
2023/02/25 10:45:07;;;;;;;15.30;2.67;;;5.90;99.90;;;;;;5093469;28;20032;-65
2023/02/25 10:47:35;;;;;;;6.15;2.25;;;6.10;99.90;;;;;;5097271;28;20047;-65
2023/02/25 10:50:21;;;;;;;12.70;2.38;;;6.00;99.90;;;;;;5097070;28;20024;-65
2023/02/25 10:52:53;;;;;;;8.80;2.67;;;5.90;99.90;;;;;;5096228;28;20036;-65
2023/02/25 10:55:51;;;;;;;9.80;2.00;;;5.90;99.90;;;;;;5075589;28;20070;-65
2023/02/25 11:01:19;;;;;;;8.07;1.90;;;6.00;99.90;;;;;;5070576;28;20379;-63
2023/02/25 11:04:04;;;;;;;7.38;1.90;;;7.10;99.90;;;;;;5070722;28;20398;-64
2023/02/25 11:06:34;;;;;;;6.60;2.10;;;7.50;99.90;;;;;;5070493;28;20028;-64
2023/02/25 11:09:04;;;;;;;7.80;2.60;;;8.20;99.90;;;;;;5069288;28;20028;-64
2023/02/25 11:11:32;;;;;;;10.15;2.13;;;9.00;99.90;;;;;;5070432;28;20470;-67
2023/02/25 11:14:04;;;;;;;10.65;2.33;;;7.90;99.90;;;;;;5070525;28;20513;-64
2023/02/25 11:16:33;;;;;;;7.53;1.73;;;7.00;99.90;;;;;;5070160;28;20056;-66
2023/02/25 11:19:03;;;;;;;6.03;1.60;;;6.00;99.90;;;;;;5070145;28;20506;-65
2023/02/25 11:21:38;;;;;;;7.75;1.60;;;6.60;99.90;;;;;;5070246;28;20490;-65
2023/02/25 11:24:14;;;;;;;12.90;2.50;;;6.10;99.90;;;;;;5070364;28;20039;-65
2023/02/25 11:26:45;;;;;;;8.45;1.73;;;6.00;99.90;;;;;;5070097;28;20025;-65
2023/02/25 11:29:18;;;;;;;12.32;2.13;;;5.90;99.90;;;;;;5069101;28;20033;-65
2023/02/25 11:31:50;;;;;;;8.38;1.77;;;5.90;99.90;;;;;;5070123;28;20035;-64
2023/02/25 11:34:23;;;;;;;9.18;2.00;;;6.40;99.90;;;;;;5069926;28;20478;-64
2023/02/25 11:36:48;;;;;;;7.68;1.90;;;6.20;99.90;;;;;;5070008;28;20604;-64
2023/02/25 11:42:16;;;;;;;7.00;1.95;;;5.50;99.90;;;;;;5111096;27;20412;-64
2023/02/25 11:44:44;;;;;;;7.75;1.83;;;5.60;99.90;;;;;;5111043;28;20055;-64
2023/02/25 11:47:24;;;;;;;8.45;1.80;;;6.30;99.90;;;;;;5111007;28;20023;-64
2023/02/25 11:50:14;;;;;;;9.80;1.58;;;6.20;99.90;;;;;;5111180;28;20481;-65
2023/02/25 11:52:57;;;;;;;5.55;1.45;;;6.00;99.90;;;;;;5110741;28;20081;-65
2023/02/25 11:55:43;;;;;;;9.18;1.48;;;6.20;99.90;;;;;;5111096;28;20097;-65
2023/02/25 11:58:33;;;;;;;6.63;1.45;;;6.60;99.90;;;;;;5109576;28;20034;-65
2023/02/25 12:01:05;;;;;;;3.33;1.10;;;6.80;99.90;;;;;;5110636;28;20024;-65
2023/02/25 12:07:25;;;;;;;8.35;1.80;;;6.30;99.90;;;;;;5111194;27;20368;-66
2023/02/25 12:10:24;;;;;;;9.35;1.58;;;6.30;99.90;;;;;;5111030;28;20119;-67
2023/02/25 12:13:22;;;;;;;4.15;1.17;;;5.90;99.90;;;;;;5111228;28;20112;-66
2023/02/25 12:19:12;;;;;;;3.92;1.33;;;5.80;99.90;;;;;;5090861;28;20435;-66
2023/02/25 12:22:16;;;;;;;5.97;1.45;;;5.30;99.90;;;;;;5090247;28;20025;-66
2023/02/25 12:25:11;;;;;;;3.97;1.40;;;5.80;99.90;;;;;;5090718;28;20039;-66
2023/02/25 12:30:49;;;;;;;3.75;0.90;;;6.30;99.90;;;;;;5111076;27;20380;-66
2023/02/25 12:33:54;;;;;;;5.78;1.00;;;6.40;99.90;;;;;;5111083;28;20123;-66
2023/02/25 12:37:00;;;;;;;2.60;0.82;;;6.50;99.90;;;;;;5111004;28;20500;-66
2023/02/25 12:39:44;;;;;;;3.08;0.90;;;6.50;99.90;;;;;;5110504;28;20466;-66
2023/02/25 12:42:33;;;;;;;4.28;0.70;;;6.50;99.90;;;;;;5111095;28;20028;-66
2023/02/25 12:45:20;;;;;;;2.75;0.80;;;6.70;99.90;;;;;;5110823;28;20502;-66
2023/02/25 12:48:05;;;;;;;5.53;1.38;;;6.60;99.90;;;;;;5110855;28;20159;-66
2023/02/25 12:51:01;;;;;;;3.40;1.27;;;6.20;99.90;;;;;;5110858;28;20077;-66
2023/02/25 12:53:39;;;;;;;3.83;0.90;;;6.20;99.90;;;;;;5110597;28;20020;-66
2023/02/25 12:56:42;;;;;;;4.80;1.35;;;6.00;99.90;;;;;;5110735;28;20027;-66
2023/02/25 12:59:42;;;;;;;3.83;1.20;;;6.30;99.90;;;;;;5110787;28;20028;-66
2023/02/25 13:02:36;;;;;;;2.83;1.10;;;6.30;99.90;;;;;;5110702;28;20457;-66
2023/02/25 13:08:14;;;;;;;2.33;0.90;;;5.70;99.90;;;;;;5090754;28;20402;-65
2023/02/25 13:11:12;;;;;;;4.80;1.10;;;5.80;99.90;;;;;;5090749;28;20513;-66
2023/02/25 13:14:02;;;;;;;4.13;0.98;;;6.20;99.90;;;;;;5090541;28;20027;-65
2023/02/25 13:16:57;;;;;;;3.50;1.05;;;6.30;99.60;;;;;;5090537;28;20452;-65
2023/02/25 13:19:54;;;;;;;6.35;1.38;;;6.10;99.20;;;;;;5090435;28;20024;-64
2023/02/25 13:22:51;;;;;;;2.42;0.85;;;6.00;98.40;;;;;;5090532;28;20024;-65
2023/02/25 13:25:43;;;;;;;3.50;1.25;;;5.90;99.00;;;;;;5090199;28;20489;-65
2023/02/25 13:28:48;;;;;;;4.72;1.10;;;6.20;99.90;;;;;;5090251;28;20082;-65
2023/02/25 13:31:33;;;;;;;3.28;1.02;;;6.30;99.90;;;;;;5090315;28;20448;-64
2023/02/25 13:34:24;;;;;;;2.05;0.90;;;6.00;99.30;;;;;;5090298;28;20478;-65
2023/02/25 13:37:04;;;;;;;3.78;0.95;;;5.90;99.90;;;;;;5090047;28;20107;-66
2023/02/25 13:40:10;;;;;;;3.58;1.10;;;6.30;99.90;;;;;;5090192;28;20020;-66